Time;durP1;ratioP1;P1;durP2;ratioP2;P2;SDS_P1;SDS_P2;PMS_P1;PMS_P2;Temp;Humidity;BMP_temperature;BMP_pressure;BME280_temperature;BME280_humidity;BME280_pressure;Samples;Min_cycle;Max_cycle;Signal;HPM_P1;HPM_P2
2023/03/29 00:01:56;;;;;;;;;;;;;;;;;;5089687;28;19924;-74
2023/03/29 00:04:26;;;;;;;;;;;;;;;;;;5090912;28;19963;-74
2023/03/29 00:06:53;;;;;;;;;;;;;;;;;;5089186;28;19946;-76
2023/03/29 00:09:20;;;;;;;;;;;;;;;;;;5086297;28;19978;-76
2023/03/29 00:11:49;;;;;;;;;;;;;;;;;;5087380;28;20131;-75
2023/03/29 00:14:16;;;;;;;;;;;;;;;;;;5077275;28;19928;-76
2023/03/29 00:16:45;;;;;;;;;;;;;;;;;;5087449;28;20023;-76
2023/03/29 00:19:12;;;;;;;;;;;;;;;;;;5077419;28;19924;-76
2023/03/29 00:21:39;;;;;;;;;;;;;;;;;;5089715;28;20306;-75
2023/03/29 00:24:06;;;;;;;;;;;;;;;;;;5091003;28;19928;-75
2023/03/29 00:26:33;;;;;;;;;;;;;;;;;;5087988;28;20349;-74
2023/03/29 00:29:00;;;;;;;;;;;;;;;;;;5073145;28;20383;-76
2023/03/29 00:31:27;;;;;;;;;;;;;;;;;;5089232;28;20379;-76
2023/03/29 00:33:54;;;;;;;;;;;;;;;;;;5087689;28;20395;-76
2023/03/29 00:36:22;;;;;;;;;;;;;;;;;;5089957;28;19924;-74
2023/03/29 00:38:49;;;;;;;;;;;;;;;;;;5085718;28;19978;-74
2023/03/29 00:41:16;;;;;;;;;;;;;;;;;;5076446;28;19924;-74
2023/03/29 00:43:43;;;;;;;;;;;;;;;;;;5088508;28;20010;-76
2023/03/29 00:46:09;;;;;;;;;;;;;;;;;;5092371;28;19930;-73
2023/03/29 00:48:37;;;;;;;;;;;;;;;;;;5086415;28;19947;-75
2023/03/29 00:51:04;;;;;;;;;;;;;;;;;;5091071;28;19967;-75
2023/03/29 00:53:32;;;;;;;;;;;;;;;;;;5087413;28;19971;-75
2023/03/29 00:56:00;;;;;;;;;;;;;;;;;;5086417;28;19974;-75
2023/03/29 00:58:27;;;;;;;;;;;;;;;;;;5086969;28;19925;-75
2023/03/29 01:00:54;;;;;;;;;;;;;;;;;;5088620;28;20407;-75
2023/03/29 01:03:23;;;;;;;;;;;;;;;;;;5086858;28;20038;-76
2023/03/29 01:05:50;;;;;;;;;;;;;;;;;;5087283;28;20459;-74
2023/03/29 01:08:17;;;;;;;;;;;;;;;;;;5086336;28;19983;-76
2023/03/29 01:10:44;;;;;;;;;;;;;;;;;;5090620;28;19924;-76
2023/03/29 01:13:11;;;;;;;;;;;;;;;;;;5080575;28;19977;-74
2023/03/29 01:15:38;;;;;;;;;;;;;;;;;;5091301;28;19924;-76
2023/03/29 01:18:05;;;;;;;;;;;;;;;;;;5087196;28;19924;-76
2023/03/29 01:20:33;;;;;;;;;;;;;;;;;;5090421;28;20449;-75
2023/03/29 01:23:00;;;;;;;;;;;;;;;;;;5087896;28;20339;-77
2023/03/29 01:25:27;;;;;;;;;;;;;;;;;;5088702;28;19924;-75
2023/03/29 01:27:54;;;;;;;;;;;;;;;;;;5087767;28;20039;-75
2023/03/29 01:30:22;;;;;;;;;;;;;;;;;;5090232;28;19925;-75
2023/03/29 01:32:49;;;;;;;;;;;;;;;;;;5087605;28;19927;-75
2023/03/29 01:35:16;;;;;;;;;;;;;;;;;;5090688;28;19930;-76
2023/03/29 01:37:43;;;;;;;;;;;;;;;;;;5086930;28;20018;-77
2023/03/29 01:40:10;;;;;;;;;;;;;;;;;;5089803;28;20011;-76
2023/03/29 01:42:37;;;;;;;;;;;;;;;;;;5087880;28;19924;-80
2023/03/29 01:45:04;;;;;;;;;;;;;;;;;;5078112;28;19983;-75
2023/03/29 01:47:31;;;;;;;;;;;;;;;;;;5085920;28;19924;-75
2023/03/29 01:49:58;;;;;;;;;;;;;;;;;;5088088;28;20390;-76
2023/03/29 01:52:25;;;;;;;;;;;;;;;;;;5088779;28;20458;-75
2023/03/29 01:54:52;;;;;;;;;;;;;;;;;;5090608;28;19931;-75
2023/03/29 01:57:20;;;;;;;;;;;;;;;;;;5088735;28;20442;-74
2023/03/29 01:59:47;;;;;;;;;;;;;;;;;;5088362;28;20474;-75
2023/03/29 02:02:14;;;;;;;;;;;;;;;;;;5085453;28;19931;-75
2023/03/29 02:04:43;;;;;;;;;;;;;;;;;;5091664;28;19977;-76
2023/03/29 02:07:10;;;;;;;;;;;;;;;;;;5091799;28;20387;-75
2023/03/29 02:09:37;;;;;;;;;;;;;;;;;;5092357;28;19925;-74
2023/03/29 02:12:04;;;;;;;;;;;;;;;;;;5092122;28;19928;-74
2023/03/29 02:14:31;;;;;;;;;;;;;;;;;;5091807;28;19924;-74
2023/03/29 02:16:58;;;;;;;;;;;;;;;;;;5092330;28;19924;-74
2023/03/29 02:19:26;;;;;;;;;;;;;;;;;;5093211;28;20003;-75
2023/03/29 02:21:53;;;;;;;;;;;;;;;;;;5090928;28;19978;-73
2023/03/29 02:24:20;;;;;;;;;;;;;;;;;;5090011;28;19924;-74
2023/03/29 02:26:47;;;;;;;;;;;;;;;;;;5089866;28;19967;-76
2023/03/29 02:29:15;;;;;;;;;;;;;;;;;;5092332;28;20007;-74
2023/03/29 02:31:42;;;;;;;;;;;;;;;;;;5091411;28;20002;-75
2023/03/29 02:34:09;;;;;;;;;;;;;;;;;;5091034;28;19924;-75
2023/03/29 02:36:39;;;;;;;;;;;;;;;;;;5086740;28;19932;-75
2023/03/29 02:39:06;;;;;;;;;;;;;;;;;;5090527;28;19964;-74
2023/03/29 02:41:33;;;;;;;;;;;;;;;;;;5084259;28;20465;-75
2023/03/29 02:44:00;;;;;;;;;;;;;;;;;;5091611;28;19967;-74
2023/03/29 02:46:27;;;;;;;;;;;;;;;;;;5091219;28;19928;-76
2023/03/29 02:48:54;;;;;;;;;;;;;;;;;;5082740;28;19924;-77
2023/03/29 02:51:22;;;;;;;;;;;;;;;;;;5091000;28;20294;-75
2023/03/29 02:53:50;;;;;;;;;;;;;;;;;;5089805;28;20458;-76
2023/03/29 02:56:17;;;;;;;;;;;;;;;;;;5088120;28;19924;-75
2023/03/29 02:58:44;;;;;;;;;;;;;;;;;;5090275;28;19967;-75
2023/03/29 03:01:12;;;;;;;;;;;;;;;;;;5086587;28;19930;-76
2023/03/29 03:03:40;;;;;;;;;;;;;;;;;;5088359;28;19966;-75
2023/03/29 03:06:07;;;;;;;;;;;;;;;;;;5093059;28;20018;-78
2023/03/29 03:08:33;;;;;;;;;;;;;;;;;;5090524;28;19967;-75
2023/03/29 03:11:01;;;;;;;;;;;;;;;;;;5093062;28;19931;-75
2023/03/29 03:13:28;;;;;;;;;;;;;;;;;;5089400;28;20337;-74
2023/03/29 03:15:55;;;;;;;;;;;;;;;;;;5090021;28;22118;-75
2023/03/29 03:18:22;;;;;;;;;;;;;;;;;;5089488;28;19928;-75
2023/03/29 03:20:49;;;;;;;;;;;;;;;;;;5090384;28;20382;-74
2023/03/29 03:23:16;;;;;;;;;;;;;;;;;;5089419;28;19924;-75
2023/03/29 03:25:43;;;;;;;;;;;;;;;;;;5089887;28;19924;-75
2023/03/29 03:28:11;;;;;;;;;;;;;;;;;;5088788;28;19932;-74
2023/03/29 03:30:38;;;;;;;;;;;;;;;;;;5077849;28;20011;-74
2023/03/29 03:33:05;;;;;;;;;;;;;;;;;;5080895;28;19976;-74
2023/03/29 03:35:32;;;;;;;;;;;;;;;;;;5090012;28;20027;-77
2023/03/29 03:37:59;;;;;;;;;;;;;;;;;;5088253;28;19924;-74
2023/03/29 03:40:26;;;;;;;;;;;;;;;;;;5084159;28;19972;-77
2023/03/29 03:42:53;;;;;;;;;;;;;;;;;;5089144;28;19928;-73
2023/03/29 03:45:20;;;;;;;;;;;;;;;;;;5089605;28;19924;-74
2023/03/29 03:47:47;;;;;;;;;;;;;;;;;;5090206;28;19975;-73
2023/03/29 03:50:14;;;;;;;;;;;;;;;;;;5091320;28;19924;-74
2023/03/29 03:52:41;;;;;;;;;;;;;;;;;;5089138;28;19924;-73
2023/03/29 03:55:08;;;;;;;;;;;;;;;;;;5090697;28;19924;-75
2023/03/29 03:57:36;;;;;;;;;;;;;;;;;;5081701;28;20007;-73
2023/03/29 04:00:12;;;;;;;;;;;;;;;;;;5086309;28;20298;-76
2023/03/29 04:02:39;;;;;;;;;;;;;;;;;;5081447;28;19970;-75
2023/03/29 04:05:07;;;;;;;;;;;;;;;;;;5082646;28;19924;-76
2023/03/29 04:07:34;;;;;;;;;;;;;;;;;;5077127;28;20334;-77
2023/03/29 04:10:01;;;;;;;;;;;;;;;;;;5085687;28;20337;-77
2023/03/29 04:12:28;;;;;;;;;;;;;;;;;;5089986;28;20302;-76
2023/03/29 04:14:55;;;;;;;;;;;;;;;;;;5090786;28;20409;-76
2023/03/29 04:17:22;;;;;;;;;;;;;;;;;;5084711;28;19925;-76
2023/03/29 04:19:49;;;;;;;;;;;;;;;;;;5082948;28;19924;-75
2023/03/29 04:22:16;;;;;;;;;;;;;;;;;;5080571;28;19931;-75
2023/03/29 04:24:43;;;;;;;;;;;;;;;;;;5084640;28;20113;-76
2023/03/29 04:27:10;;;;;;;;;;;;;;;;;;5085991;28;19924;-76
2023/03/29 04:29:37;;;;;;;;;;;;;;;;;;5079415;28;19947;-76
2023/03/29 04:32:04;;;;;;;;;;;;;;;;;;5089432;28;19934;-78
2023/03/29 04:34:31;;;;;;;;;;;;;;;;;;5088499;28;19936;-79
2023/03/29 04:36:58;;;;;;;;;;;;;;;;;;5089369;28;20446;-76
2023/03/29 04:39:30;;;;;;;;;;;;;;;;;;5090085;28;19928;-77
2023/03/29 04:41:57;;;;;;;;;;;;;;;;;;5088923;28;20020;-75
2023/03/29 04:44:25;;;;;;;;;;;;;;;;;;5089168;28;20331;-77
2023/03/29 04:46:52;;;;;;;;;;;;;;;;;;5087807;28;19967;-75
2023/03/29 04:49:21;;;;;;;;;;;;;;;;;;5089893;28;20018;-78
2023/03/29 04:51:48;;;;;;;;;;;;;;;;;;5089952;28;19955;-76
2023/03/29 04:54:15;;;;;;;;;;;;;;;;;;5090409;28;19928;-78
2023/03/29 04:56:42;;;;;;;;;;;;;;;;;;5087317;28;20031;-77
2023/03/29 04:59:09;;;;;;;;;;;;;;;;;;5088353;28;20022;-78
2023/03/29 05:01:36;;;;;;;;;;;;;;;;;;5090509;28;19931;-76
2023/03/29 05:04:03;;;;;;;;;;;;;;;;;;5079155;28;20023;-77
2023/03/29 05:06:30;;;;;;;;;;;;;;;;;;5086018;28;19970;-76
2023/03/29 05:08:58;;;;;;;;;;;;;;;;;;5090454;28;19924;-79
2023/03/29 05:11:25;;;;;;;;;;;;;;;;;;5091574;28;19931;-77
2023/03/29 05:13:54;;;;;;;;;;;;;;;;;;5082140;28;19971;-76
2023/03/29 05:16:21;;;;;;;;;;;;;;;;;;5091528;28;20408;-76
2023/03/29 05:18:48;;;;;;;;;;;;;;;;;;5089134;28;19932;-76
2023/03/29 05:21:16;;;;;;;;;;;;;;;;;;5089425;28;19924;-76
2023/03/29 05:23:43;;;;;;;;;;;;;;;;;;5082295;28;19968;-78
2023/03/29 05:26:13;;;;;;;;;;;;;;;;;;5088483;28;19924;-79
2023/03/29 05:28:40;;;;;;;;;;;;;;;;;;5090078;28;20390;-75
2023/03/29 05:31:07;;;;;;;;;;;;;;;;;;5090870;28;20413;-75
2023/03/29 05:33:35;;;;;;;;;;;;;;;;;;5089950;28;20357;-75
2023/03/29 05:36:02;;;;;;;;;;;;;;;;;;5090202;28;20438;-77
2023/03/29 05:38:31;;;;;;;;;;;;;;;;;;5090496;28;19931;-77
2023/03/29 05:41:01;;;;;;;;;;;;;;;;;;5091602;28;19931;-76
2023/03/29 05:43:28;;;;;;;;;;;;;;;;;;5089144;28;19993;-79
2023/03/29 05:45:55;;;;;;;;;;;;;;;;;;5091340;28;19924;-77
2023/03/29 05:48:22;;;;;;;;;;;;;;;;;;5090520;28;19931;-76
2023/03/29 05:50:50;;;;;;;;;;;;;;;;;;5092569;28;20367;-76
2023/03/29 05:53:17;;;;;;;;;;;;;;;;;;5086157;28;19928;-74
2023/03/29 05:55:44;;;;;;;;;;;;;;;;;;5094785;28;19955;-75
2023/03/29 05:58:12;;;;;;;;;;;;;;;;;;5093913;28;19935;-75
2023/03/29 06:00:39;;;;;;;;;;;;;;;;;;5094645;28;19924;-75
2023/03/29 06:03:06;;;;;;;;;;;;;;;;;;5092879;28;19966;-76
2023/03/29 06:05:33;;;;;;;;;;;;;;;;;;5094156;28;19924;-76
2023/03/29 06:08:00;;;;;;;;;;;;;;;;;;5092604;28;19974;-75
2023/03/29 06:10:35;;;;;;;;;;;;;;;;;;5093185;28;19978;-79
2023/03/29 06:13:03;;;;;;;;;;;;;;;;;;5091542;28;19935;-77
2023/03/29 06:15:30;;;;;;;;;;;;;;;;;;5093474;28;19931;-78
2023/03/29 06:17:58;;;;;;;;;;;;;;;;;;5093866;28;19924;-80
2023/03/29 06:20:28;;;;;;;;;;;;;;;;;;5088421;28;20437;-83
2023/03/29 06:22:55;;;;;;;;;;;;;;;;;;5087029;28;19924;-80
2023/03/29 06:25:22;;;;;;;;;;;;;;;;;;5091262;28;19938;-80
2023/03/29 06:27:49;;;;;;;;;;;;;;;;;;5093595;28;20298;-80
2023/03/29 06:30:27;;;;;;;;;;;;;;;;;;5094859;28;19979;-79
2023/03/29 06:32:54;;;;;;;;;;;;;;;;;;5093984;28;19924;-79
2023/03/29 06:35:24;;;;;;;;;;;;;;;;;;5093611;28;20014;-79
2023/03/29 06:37:53;;;;;;;;;;;;;;;;;;5093532;28;20370;-78
2023/03/29 06:40:21;;;;;;;;;;;;;;;;;;5094518;28;20027;-78
2023/03/29 06:42:49;;;;;;;;;;;;;;;;;;5094013;28;19938;-79
2023/03/29 06:45:16;;;;;;;;;;;;;;;;;;5081181;28;19946;-76
2023/03/29 06:47:44;;;;;;;;;;;;;;;;;;5091424;28;19930;-75
2023/03/29 06:50:11;;;;;;;;;;;;;;;;;;5088885;28;19924;-77
2023/03/29 06:52:38;;;;;;;;;;;;;;;;;;5091123;28;19924;-78
2023/03/29 06:55:06;;;;;;;;;;;;;;;;;;5093160;28;19924;-74
2023/03/29 06:57:33;;;;;;;;;;;;;;;;;;5091124;28;20383;-72
2023/03/29 07:00:01;;;;;;;;;;;;;;;;;;5093373;28;19931;-75
2023/03/29 07:02:30;;;;;;;;;;;;;;;;;;5091108;28;19996;-77
2023/03/29 07:04:57;;;;;;;;;;;;;;;;;;5093781;28;19981;-75
2023/03/29 07:07:32;;;;;;;;;;;;;;;;;;5092330;28;20237;-76
2023/03/29 07:10:00;;;;;;;;;;;;;;;;;;5093574;28;19947;-79
2023/03/29 07:12:39;;;;;;;;;;;;;;;;;;;;;
2023/03/29 07:15:07;;;;;;;;;;;;;;;;;;5088329;28;19928;-75
2023/03/29 07:17:34;;;;;;;;;;;;;;;;;;5086215;28;19931;-74
2023/03/29 07:20:06;;;;;;;;;;;;;;;;;;5094149;28;20287;-75
2023/03/29 07:22:33;;;;;;;;;;;;;;;;;;5087817;28;20420;-74
2023/03/29 07:25:00;;;;;;;;;;;;;;;;;;5088551;28;19932;-74
2023/03/29 07:27:27;;;;;;;;;;;;;;;;;;5089246;28;20012;-76
2023/03/29 07:29:55;;;;;;;;;;;;;;;;;;5080372;28;19930;-74
2023/03/29 07:32:22;;;;;;;;;;;;;;;;;;5082524;28;19924;-75
2023/03/29 07:34:50;;;;;;;;;;;;;;;;;;5089811;28;19924;-75
2023/03/29 07:37:17;;;;;;;;;;;;;;;;;;5087678;28;19978;-75
2023/03/29 07:39:44;;;;;;;;;;;;;;;;;;5092008;28;20352;-76
2023/03/29 07:42:11;;;;;;;;;;;;;;;;;;5091840;28;20361;-76
2023/03/29 07:44:38;;;;;;;;;;;;;;;;;;5093024;28;19931;-75
2023/03/29 07:47:05;;;;;;;;;;;;;;;;;;5076287;28;19950;-75
2023/03/29 07:49:32;;;;;;;;;;;;;;;;;;5083339;28;19924;-75
2023/03/29 07:52:00;;;;;;;;;;;;;;;;;;5089368;28;19931;-76
2023/03/29 07:54:27;;;;;;;;;;;;;;;;;;5082636;28;19970;-75
2023/03/29 07:56:54;;;;;;;;;;;;;;;;;;5083208;28;20015;-73
2023/03/29 07:59:21;;;;;;;;;;;;;;;;;;5078298;28;19928;-77
2023/03/29 08:01:49;;;;;;;;;;;;;;;;;;5079133;28;19928;-80
2023/03/29 08:04:16;;;;;;;;;;;;;;;;;;5088650;28;19924;-80
2023/03/29 08:06:43;;;;;;;;;;;;;;;;;;5083318;28;19924;-79
2023/03/29 08:09:11;;;;;;;;;;;;;;;;;;5083149;28;19982;-82
2023/03/29 08:11:38;;;;;;;;;;;;;;;;;;5089652;28;19928;-82
2023/03/29 08:14:05;;;;;;;;;;;;;;;;;;5082333;28;19928;-80
2023/03/29 08:16:32;;;;;;;;;;;;;;;;;;5079106;28;19928;-79
2023/03/29 08:18:59;;;;;;;;;;;;;;;;;;5087201;28;20121;-77
2023/03/29 08:21:26;;;;;;;;;;;;;;;;;;5076663;28;20322;-76
2023/03/29 08:23:53;;;;;;;;;;;;;;;;;;5074877;28;19951;-76
2023/03/29 08:26:21;;;;;;;;;;;;;;;;;;5076849;28;20022;-74
2023/03/29 08:28:47;;;;;;;;;;;;;;;;;;5076086;28;19936;-74
2023/03/29 08:31:14;;;;;;;;;;;;;;;;;;5084257;28;19924;-75
2023/03/29 08:33:43;;;;;;;;;;;;;;;;;;5082122;28;19948;-73
2023/03/29 08:36:10;;;;;;;;;;;;;;;;;;5081993;28;20348;-73
2023/03/29 08:38:36;;;;;;;;;;;;;;;;;;5085442;28;19931;-74
2023/03/29 08:41:03;;;;;;;;;;;;;;;;;;5083440;28;19924;-74
2023/03/29 08:43:30;;;;;;;;;;;;;;;;;;5082874;28;19936;-73
2023/03/29 08:45:59;;;;;;;;;;;;;;;;;;5082868;28;20007;-74
2023/03/29 08:48:27;;;;;;;;;;;;;;;;;;5081143;28;19936;-74
2023/03/29 08:50:54;;;;;;;;;;;;;;;;;;5089434;28;19924;-70
2023/03/29 08:53:21;;;;;;;;;;;;;;;;;;5086981;28;19927;-74
2023/03/29 08:55:48;;;;;;;;;;;;;;;;;;5094894;28;20210;-77
2023/03/29 08:58:15;;;;;;;;;;;;;;;;;;5085487;28;19928;-76
2023/03/29 09:00:42;;;;;;;;;;;;;;;;;;5082957;28;19955;-77
2023/03/29 09:03:10;;;;;;;;;;;;;;;;;;5078694;28;19931;-77
2023/03/29 09:05:37;;;;;;;;;;;;;;;;;;5082478;28;20058;-77
2023/03/29 09:08:04;;;;;;;;;;;;;;;;;;5079686;28;19955;-76
2023/03/29 09:10:30;;;;;;;;;;;;;;;;;;5080319;28;20368;-76
2023/03/29 09:12:57;;;;;;;;;;;;;;;;;;5081645;28;19928;-76
2023/03/29 09:15:24;;;;;;;;;;;;;;;;;;5086287;28;19930;-75
2023/03/29 09:17:51;;;;;;;;;;;;;;;;;;5085129;28;19924;-76
2023/03/29 09:20:18;;;;;;;;;;;;;;;;;;5085918;28;19931;-76
2023/03/29 09:22:45;;;;;;;;;;;;;;;;;;5082300;28;19924;-76
2023/03/29 09:25:12;;;;;;;;;;;;;;;;;;5089970;28;19924;-77
2023/03/29 09:27:40;;;;;;;;;;;;;;;;;;5086815;28;20291;-77
2023/03/29 09:30:07;;;;;;;;;;;;;;;;;;5088579;28;19932;-77
2023/03/29 09:32:34;;;;;;;;;;;;;;;;;;5089222;28;19931;-77
2023/03/29 09:35:02;;;;;;;;;;;;;;;;;;5089381;28;19971;-77
2023/03/29 09:37:29;;;;;;;;;;;;;;;;;;5083949;28;19928;-79
2023/03/29 09:39:56;;;;;;;;;;;;;;;;;;5094575;28;20011;-78
2023/03/29 09:42:23;;;;;;;;;;;;;;;;;;5083092;28;19924;-78
2023/03/29 09:44:50;;;;;;;;;;;;;;;;;;5090160;28;19946;-78
2023/03/29 09:47:17;;;;;;;;;;;;;;;;;;5082213;28;20276;-78
2023/03/29 09:49:44;;;;;;;;;;;;;;;;;;5086191;28;19924;-77
2023/03/29 09:52:11;;;;;;;;;;;;;;;;;;5082932;28;19978;-78
2023/03/29 09:54:38;;;;;;;;;;;;;;;;;;5088478;28;20015;-71
2023/03/29 09:57:05;;;;;;;;;;;;;;;;;;5087497;28;20006;-71
2023/03/29 09:59:32;;;;;;;;;;;;;;;;;;5077151;28;19963;-70
2023/03/29 10:01:59;;;;;;;;;;;;;;;;;;5080013;28;20414;-70
2023/03/29 10:04:26;;;;;;;;;;;;;;;;;;5089155;28;20040;-69
2023/03/29 10:06:53;;;;;;;;;;;;;;;;;;5084923;28;20019;-71
2023/03/29 10:09:20;;;;;;;;;;;;;;;;;;5084212;28;20392;-69
2023/03/29 10:11:47;;;;;;;;;;;;;;;;;;5090968;28;19930;-72
2023/03/29 10:14:15;;;;;;;;;;;;;;;;;;5086999;28;20035;-71
2023/03/29 10:16:44;;;;;;;;;;;;;;;;;;5088628;28;19925;-71
2023/03/29 10:19:14;;;;;;;;;;;;;;;;;;5097706;28;19932;-75
2023/03/29 10:21:41;;;;;;;;;;;;;;;;;;5084132;28;20322;-76
2023/03/29 10:24:08;;;;;;;;;;;;;;;;;;5089013;28;19935;-75
2023/03/29 10:26:37;;;;;;;;;;;;;;;;;;5099150;28;19912;-76
2023/03/29 10:29:05;;;;;;;;;;;;;;;;;;5100778;28;19924;-78
2023/03/29 10:31:32;;;;;;;;;;;;;;;;;;5085374;28;21492;-78
2023/03/29 10:34:00;;;;;;;;;;;;;;;;;;5091621;28;20696;-76
2023/03/29 10:36:27;;;;;;;;;;;;;;;;;;5094089;28;19948;-76
2023/03/29 10:38:54;;;;;;;;;;;;;;;;;;5088124;28;20002;-76
2023/03/29 10:41:21;;;;;;;;;;;;;;;;;;5095332;28;19931;-77
2023/03/29 10:43:49;;;;;;;;;;;;;;;;;;5096942;28;19967;-77
2023/03/29 10:46:19;;;;;;;;;;;;;;;;;;5097645;28;20374;-78
2023/03/29 10:48:49;;;;;;;;;;;;;;;;;;5090434;28;19924;-75
2023/03/29 10:51:16;;;;;;;;;;;;;;;;;;5096070;28;20402;-76
2023/03/29 10:53:44;;;;;;;;;;;;;;;;;;5090005;28;19986;-77
2023/03/29 10:56:11;;;;;;;;;;;;;;;;;;5099334;28;19924;-77
2023/03/29 10:58:38;;;;;;;;;;;;;;;;;;5095209;28;20015;-76
2023/03/29 11:01:05;;;;;;;;;;;;;;;;;;5095544;28;20015;-76
2023/03/29 11:03:32;;;;;;;;;;;;;;;;;;5096866;28;19967;-76
2023/03/29 11:06:00;;;;;;;;;;;;;;;;;;5082548;28;19928;-76
2023/03/29 11:08:28;;;;;;;;;;;;;;;;;;5094076;28;19924;-76
2023/03/29 11:10:55;;;;;;;;;;;;;;;;;;5100424;28;20004;-79
2023/03/29 11:13:22;;;;;;;;;;;;;;;;;;5096312;28;19924;-76
2023/03/29 11:15:50;;;;;;;;;;;;;;;;;;5090301;28;19995;-75
2023/03/29 11:18:17;;;;;;;;;;;;;;;;;;5105233;28;20006;-77
2023/03/29 11:20:44;;;;;;;;;;;;;;;;;;5097317;28;19950;-74
2023/03/29 11:23:11;;;;;;;;;;;;;;;;;;5089174;28;20043;-77
2023/03/29 11:25:38;;;;;;;;;;;;;;;;;;5101402;28;20003;-76
2023/03/29 11:28:05;;;;;;;;;;;;;;;;;;5097010;28;19924;-75
2023/03/29 11:30:32;;;;;;;;;;;;;;;;;;5082491;28;19928;-75
2023/03/29 11:33:00;;;;;;;;;;;;;;;;;;5093856;28;19932;-76
2023/03/29 11:35:27;;;;;;;;;;;;;;;;;;5096213;28;19974;-80
2023/03/29 11:37:54;;;;;;;;;;;;;;;;;;5096775;28;19960;-77
2023/03/29 11:40:21;;;;;;;;;;;;;;;;;;5091347;28;19967;-77
2023/03/29 11:42:48;;;;;;;;;;;;;;;;;;5091532;28;19992;-74
2023/03/29 11:45:15;;;;;;;;;;;;;;;;;;5091435;28;20015;-74
2023/03/29 11:47:43;;;;;;;;;;;;;;;;;;5088006;28;19928;-76
2023/03/29 11:50:10;;;;;;;;;;;;;;;;;;5097932;28;19939;-76
2023/03/29 11:52:37;;;;;;;;;;;;;;;;;;5099521;28;19924;-77
2023/03/29 11:55:04;;;;;;;;;;;;;;;;;;5094405;28;19924;-75
2023/03/29 11:57:31;;;;;;;;;;;;;;;;;;5093386;28;19963;-77
2023/03/29 11:59:59;;;;;;;;;;;;;;;;;;5099669;28;19924;-78
2023/03/29 12:02:28;;;;;;;;;;;;;;;;;;5097739;28;19977;-79
2023/03/29 12:04:57;;;;;;;;;;;;;;;;;;5096872;28;19938;-79
2023/03/29 12:07:24;;;;;;;;;;;;;;;;;;5102411;28;20260;-73
2023/03/29 12:09:51;;;;;;;;;;;;;;;;;;5090705;28;19977;-78
2023/03/29 12:12:18;;;;;;;;;;;;;;;;;;5094420;28;20015;-78
2023/03/29 12:14:45;;;;;;;;;;;;;;;;;;5089994;28;19936;-79
2023/03/29 12:17:12;;;;;;;;;;;;;;;;;;5099220;28;20013;-80
2023/03/29 12:19:40;;;;;;;;;;;;;;;;;;5103220;28;19924;-79
2023/03/29 12:22:07;;;;;;;;;;;;;;;;;;5096755;28;19932;-78
2023/03/29 12:24:34;;;;;;;;;;;;;;;;;;5108623;28;19992;-77
2023/03/29 12:27:01;;;;;;;;;;;;;;;;;;5099018;28;19955;-79
2023/03/29 12:29:28;;;;;;;;;;;;;;;;;;5095737;28;19991;-78
2023/03/29 12:31:55;;;;;;;;;;;;;;;;;;5103956;28;19963;-78
2023/03/29 12:34:22;;;;;;;;;;;;;;;;;;5095214;28;19967;-79
2023/03/29 12:36:49;;;;;;;;;;;;;;;;;;5098583;28;20051;-78
2023/03/29 12:39:17;;;;;;;;;;;;;;;;;;5115642;28;20286;-79
2023/03/29 12:41:47;;;;;;;;;;;;;;;;;;5101867;28;19952;-79
2023/03/29 12:44:14;;;;;;;;;;;;;;;;;;5097996;28;19924;-79
2023/03/29 12:46:41;;;;;;;;;;;;;;;;;;5097917;28;19992;-80
2023/03/29 12:49:08;;;;;;;;;;;;;;;;;;5096525;28;20027;-78
2023/03/29 12:51:35;;;;;;;;;;;;;;;;;;5093786;28;19924;-79
2023/03/29 12:54:02;;;;;;;;;;;;;;;;;;5092344;28;20518;-77
2023/03/29 12:56:30;;;;;;;;;;;;;;;;;;5099377;28;19927;-79
2023/03/29 12:58:56;;;;;;;;;;;;;;;;;;5098950;28;19928;-80
2023/03/29 13:01:23;;;;;;;;;;;;;;;;;;5107570;28;19966;-79
2023/03/29 13:03:51;;;;;;;;;;;;;;;;;;5098572;28;19974;-79
2023/03/29 13:06:18;;;;;;;;;;;;;;;;;;5091003;28;19928;-79
2023/03/29 13:08:47;;;;;;;;;;;;;;;;;;5095654;28;19964;-77
2023/03/29 13:11:14;;;;;;;;;;;;;;;;;;5095224;28;19928;-79
2023/03/29 13:13:42;;;;;;;;;;;;;;;;;;5087164;28;20387;-80
2023/03/29 13:16:08;;;;;;;;;;;;;;;;;;5095576;28;20344;-80
2023/03/29 13:18:36;;;;;;;;;;;;;;;;;;5097251;28;19991;-78
2023/03/29 13:21:03;;;;;;;;;;;;;;;;;;5092017;28;20363;-78
2023/03/29 13:23:30;;;;;;;;;;;;;;;;;;5095688;28;19930;-78
2023/03/29 13:25:57;;;;;;;;;;;;;;;;;;5095939;28;19932;-76
2023/03/29 13:28:24;;;;;;;;;;;;;;;;;;5096333;28;19992;-76
2023/03/29 13:30:51;;;;;;;;;;;;;;;;;;5096877;28;20298;-75
2023/03/29 13:33:18;;;;;;;;;;;;;;;;;;5082358;28;20023;-75
2023/03/29 13:35:45;;;;;;;;;;;;;;;;;;5086643;28;20383;-77
2023/03/29 13:38:13;;;;;;;;;;;;;;;;;;5093305;28;19931;-75
2023/03/29 13:40:40;;;;;;;;;;;;;;;;;;5088832;28;19967;-75
2023/03/29 13:43:08;;;;;;;;;;;;;;;;;;5080488;28;19932;-74
2023/03/29 13:45:35;;;;;;;;;;;;;;;;;;5097229;28;19924;-76
2023/03/29 13:48:02;;;;;;;;;;;;;;;;;;5081796;28;19963;-76
2023/03/29 13:50:29;;;;;;;;;;;;;;;;;;5097023;28;19928;-75
2023/03/29 13:52:56;;;;;;;;;;;;;;;;;;5080026;28;19925;-73
2023/03/29 13:55:24;;;;;;;;;;;;;;;;;;5083096;28;20004;-76
2023/03/29 13:57:51;;;;;;;;;;;;;;;;;;5084950;28;19925;-77
2023/03/29 14:00:19;;;;;;;;;;;;;;;;;;5076814;28;19936;-74
2023/03/29 14:02:46;;;;;;;;;;;;;;;;;;5092612;28;19974;-75
2023/03/29 14:05:13;;;;;;;;;;;;;;;;;;5096836;28;19924;-75
2023/03/29 14:07:40;;;;;;;;;;;;;;;;;;5091713;28;20019;-74
2023/03/29 14:10:07;;;;;;;;;;;;;;;;;;5091164;28;19930;-75
2023/03/29 14:12:34;;;;;;;;;;;;;;;;;;5092691;28;19928;-75
2023/03/29 14:15:02;;;;;;;;;;;;;;;;;;5095476;28;19931;-75
2023/03/29 14:17:29;;;;;;;;;;;;;;;;;;5091576;28;19935;-75
2023/03/29 14:19:56;;;;;;;;;;;;;;;;;;5088113;28;20480;-75
2023/03/29 14:22:23;;;;;;;;;;;;;;;;;;5080845;28;19943;-75
2023/03/29 14:24:50;;;;;;;;;;;;;;;;;;5077064;28;20014;-74
2023/03/29 14:27:17;;;;;;;;;;;;;;;;;;5078874;28;20353;-75
2023/03/29 14:29:44;;;;;;;;;;;;;;;;;;5082932;28;19970;-73
2023/03/29 14:32:11;;;;;;;;;;;;;;;;;;5085927;28;19924;-74
2023/03/29 14:34:38;;;;;;;;;;;;;;;;;;5076833;28;19954;-75
2023/03/29 14:37:07;;;;;;;;;;;;;;;;;;5088667;28;19931;-75
2023/03/29 14:39:34;;;;;;;;;;;;;;;;;;5074982;28;20349;-75
2023/03/29 14:42:01;;;;;;;;;;;;;;;;;;5084870;28;19926;-75
2023/03/29 14:44:28;;;;;;;;;;;;;;;;;;5083984;28;20022;-75
2023/03/29 14:46:55;;;;;;;;;;;;;;;;;;5074076;28;20011;-75
2023/03/29 14:49:22;;;;;;;;;;;;;;;;;;5078816;28;19934;-72
2023/03/29 14:51:49;;;;;;;;;;;;;;;;;;5084464;28;19944;-73
2023/03/29 14:54:16;;;;;;;;;;;;;;;;;;5091682;28;19965;-74
2023/03/29 14:56:43;;;;;;;;;;;;;;;;;;5079968;28;20410;-74
2023/03/29 14:59:11;;;;;;;;;;;;;;;;;;5092389;28;19924;-75
2023/03/29 15:01:37;;;;;;;;;;;;;;;;;;5091032;28;19970;-74
2023/03/29 15:04:05;;;;;;;;;;;;;;;;;;5092455;28;20023;-75
2023/03/29 15:06:32;;;;;;;;;;;;;;;;;;5080678;28;19924;-71
2023/03/29 15:09:00;;;;;;;;;;;;;;;;;;5082138;28;20040;-70
2023/03/29 15:11:27;;;;;;;;;;;;;;;;;;5079661;28;19926;-71
2023/03/29 15:13:54;;;;;;;;;;;;;;;;;;5078178;28;19925;-69
2023/03/29 15:16:21;;;;;;;;;;;;;;;;;;5083201;28;20031;-74
2023/03/29 15:18:48;;;;;;;;;;;;;;;;;;5084018;28;20275;-76
2023/03/29 15:21:15;;;;;;;;;;;;;;;;;;5078864;28;20398;-74
2023/03/29 15:23:42;;;;;;;;;;;;;;;;;;5074175;28;19935;-74
2023/03/29 15:26:10;;;;;;;;;;;;;;;;;;5090632;28;20110;-75
2023/03/29 15:28:37;;;;;;;;;;;;;;;;;;5090822;28;19931;-72
2023/03/29 15:31:04;;;;;;;;;;;;;;;;;;5093342;28;20034;-72
2023/03/29 15:33:31;;;;;;;;;;;;;;;;;;5093517;28;19963;-72
2023/03/29 15:35:58;;;;;;;;;;;;;;;;;;5093625;28;19931;-74
2023/03/29 15:38:25;;;;;;;;;;;;;;;;;;5093608;28;19931;-75
2023/03/29 15:40:52;;;;;;;;;;;;;;;;;;5092618;28;19954;-73
2023/03/29 15:43:20;;;;;;;;;;;;;;;;;;5071709;28;19925;-74
2023/03/29 15:45:47;;;;;;;;;;;;;;;;;;5086077;28;19993;-73
2023/03/29 15:48:14;;;;;;;;;;;;;;;;;;5081248;28;19964;-75
2023/03/29 15:50:41;;;;;;;;;;;;;;;;;;5080299;28;19938;-74
2023/03/29 15:53:08;;;;;;;;;;;;;;;;;;5081183;28;19932;-74
2023/03/29 15:55:36;;;;;;;;;;;;;;;;;;5079458;28;19930;-74
2023/03/29 15:58:03;;;;;;;;;;;;;;;;;;5082280;28;20007;-74
2023/03/29 16:00:30;;;;;;;;;;;;;;;;;;5086124;28;19924;-73
2023/03/29 16:02:57;;;;;;;;;;;;;;;;;;5079614;28;19970;-75
2023/03/29 16:05:24;;;;;;;;;;;;;;;;;;5083210;28;19979;-74
2023/03/29 16:07:50;;;;;;;;;;;;;;;;;;5074193;28;19939;-73
2023/03/29 16:10:17;;;;;;;;;;;;;;;;;;5084182;28;19941;-74
2023/03/29 16:12:44;;;;;;;;;;;;;;;;;;5073182;28;19931;-74
2023/03/29 16:15:11;;;;;;;;;;;;;;;;;;5081207;28;19928;-74
2023/03/29 16:17:38;;;;;;;;;;;;;;;;;;5087854;28;20458;-75
2023/03/29 16:20:06;;;;;;;;;;;;;;;;;;5075307;28;19956;-75
2023/03/29 16:22:33;;;;;;;;;;;;;;;;;;5083442;28;19932;-75
2023/03/29 16:24:59;;;;;;;;;;;;;;;;;;5084808;28;20018;-73
2023/03/29 16:27:26;;;;;;;;;;;;;;;;;;5085542;28;19932;-73
2023/03/29 16:29:53;;;;;;;;;;;;;;;;;;5088068;28;19970;-73
2023/03/29 16:32:20;;;;;;;;;;;;;;;;;;5094427;28;19932;-74
2023/03/29 16:34:47;;;;;;;;;;;;;;;;;;5076158;28;19925;-74
2023/03/29 16:37:14;;;;;;;;;;;;;;;;;;5088388;28;19928;-74
2023/03/29 16:39:41;;;;;;;;;;;;;;;;;;5079171;28;19924;-74
2023/03/29 16:42:09;;;;;;;;;;;;;;;;;;5078810;28;19931;-74
2023/03/29 16:44:35;;;;;;;;;;;;;;;;;;5081811;28;19931;-74
2023/03/29 16:47:02;;;;;;;;;;;;;;;;;;5089085;28;19924;-74